Kynouria — V7VY6 — position and weather

sailwx.info

Track history (hours):
 
Tides and Currents Weather Stations Pressure Air Temp Water Temp Dewpoint Dewpoint Depression Visibility Wind Speed Wind Dir Waves Ship Positions

Kynouria

Last reported at 2014-Jul-13 00:32 UTC. Time now 2014-Jul-22 11:25 UTC.
Position N 31°23' E 032°20'.
Warning: this ship's position is 9 days out of date.

Length 229 m; draft 12.7 m.

Type: Cargo ship. MMSI: 538004243.

Date/timePositionNaut miles runAvg speedWind from/ knotsBaromVisibWave heightAir tempDewpointWater temp
2014-Jul-13 00:32N 31°23' E 032°20'2 1.0
2014-Jul-12 22:07N 31°22' E 032°17'0 0.0
2014-Jul-12 20:31N 31°22' E 032°17'0 0.0
2014-Jul-12 19:22N 31°22' E 032°17'0 0.0
2014-Jul-12 18:31N 31°22' E 032°17'0 0.0
2014-Jul-12 17:28N 31°22' E 032°17'0 0.0
2014-Jul-12 16:31N 31°22' E 032°17'0 0.0
2014-Jul-12 15:31N 31°22' E 032°17'0 0.0
2014-Jul-12 14:31N 31°22' E 032°17'0 0.0
2014-Jul-12 13:31N 31°22' E 032°17'0 0.0
2014-Jul-12 12:31N 31°22' E 032°17'1 0.8
2014-Jul-12 11:33N 31°23' E 032°17'6 6.4
2014-Jul-12 10:33N 31°29' E 032°16'8 7.6
2014-Jul-12 09:33N 31°35' E 032°10'1413.7
2014-Jul-12 08:33N 31°44' E 031°58'1413.6
2014-Jul-12 07:33N 31°51' E 031°44'1413.9
2014-Jul-12 06:33N 31°55' E 031°28'1414.2
2014-Jul-12 05:34N 31°59' E 031°13'1514.6
2014-Jul-12 04:33N 32°04' E 030°56'1614.7
2014-Jul-12 03:28N 32°09' E 030°38'1314.6
2014-Jul-12 02:34N 32°13' E 030°23'1514.7
2014-Jul-12 01:33N 32°18' E 030°07'3014.6
2014-Jul-11 23:28N 32°27' E 029°32'1314.3
2014-Jul-11 22:33N 32°31' E 029°18'2913.7
2014-Jul-11 20:28N 32°40' E 028°45'1613.7
2014-Jul-11 19:17N 32°45' E 028°27'1114.1
2014-Jul-11 18:31N 32°48' E 028°15'1414.1
2014-Jul-11 17:34N 32°52' E 027°60'1413.9
2014-Jul-11 16:33N 32°57' E 027°44'1413.7
2014-Jul-11 15:33N 33°01' E 027°28'1413.8
2014-Jul-11 14:33N 33°05' E 027°13'1413.7
2014-Jul-11 13:33N 33°09' E 026°57'1613.6
2014-Jul-11 12:24N 33°14' E 026°39'1213.9
2014-Jul-11 11:33N 33°18' E 026°26'1414.0
2014-Jul-11 10:33N 33°22' E 026°10'29714.0
2014-Jul-10 13:23N 34°54' E 020°29'23813.8
2014-Jul-09 20:12N 36°07' E 015°51'2913.8
2014-Jul-09 18:05N 36°16' E 015°17'913.9
2014-Jul-09 17:27N 36°19' E 015°06'1214.0
2014-Jul-09 16:33N 36°23' E 014°51'1414.0
2014-Jul-09 15:33N 36°28' E 014°35'1413.9
2014-Jul-09 14:33N 36°32' E 014°18'1413.8
2014-Jul-09 13:33N 36°36' E 014°02'1413.9
2014-Jul-09 12:33N 36°40' E 013°46'1413.9
2014-Jul-09 11:33N 36°45' E 013°29'1413.9
2014-Jul-09 10:33N 36°49' E 013°13'1413.7
2014-Jul-09 09:33N 36°53' E 012°56'1414.1
2014-Jul-09 08:33N 36°57' E 012°40'1413.8
2014-Jul-09 07:33N 37°01' E 012°23'15313.5
2014-Jul-08 20:15N 37°24' E 009°13'3914.0
2014-Jul-08 17:27N 37°18' E 008°24'1314.0
2014-Jul-08 16:31N 37°17' E 008°08'25214.0
2014-Jul-07 22:30N 37°02' E 002°52'  
2014-Jul-05 11:30N 35°57' W 005°26'7514.1
2014-Jul-05 06:11N 36°03' W 006°59'914.0
2014-Jul-05 05:33N 36°06' W 007°10'1413.9
2014-Jul-05 04:33N 36°09' W 007°26'1413.8
2014-Jul-05 03:33N 36°13' W 007°43'1413.9
2014-Jul-05 02:33N 36°16' W 007°59'1413.8
2014-Jul-05 01:33N 36°20' W 008°16'1413.7
2014-Jul-05 00:33N 36°23' W 008°33'1413.8
2014-Jul-04 23:34N 36°27' W 008°49'1413.6
2014-Jul-04 22:33N 36°30' W 009°05'1313.0
2014-Jul-04 21:33N 36°35' W 009°20'1413.8
2014-Jul-04 20:33N 36°45' W 009°32'1413.7
2014-Jul-04 19:33N 36°58' W 009°37'1414.3
2014-Jul-04 18:33N 37°12' W 009°41'1414.3
2014-Jul-04 17:33N 37°26' W 009°45'1414.3
2014-Jul-04 16:33N 37°40' W 009°49'1414.2
2014-Jul-04 15:32N 37°54' W 009°53'1414.5
2014-Jul-04 14:33N 38°08' W 009°57'1514.4
2014-Jul-04 13:33N 38°22' W 010°01'1414.2
2014-Jul-04 12:32N 38°36' W 010°05'1413.7
2014-Jul-04 11:33N 38°50' W 010°06'1414.3
2014-Jul-04 10:33N 39°04' W 010°06'  
Track history (hours):
 
Tides and Currents Weather Stations Pressure Air Temp Water Temp Dewpoint Dewpoint Depression Visibility Wind Speed Wind Dir Waves Ship Positions

Kynouria

Last reported at 2014-Jul-13 00:32 UTC. Time now 2014-Jul-22 11:25 UTC.
Position N 31°23' E 032°20'.
Warning: this ship's position is 9 days out of date.

Length 229 m; draft 12.7 m.

Type: Cargo ship. MMSI: 538004243.

Date/timePositionNaut miles runAvg speedWind from/ knotsBaromVisibWave heightAir tempDewpointWater temp
2014-Jul-13 00:32N 31°23' E 032°20'2 1.0
2014-Jul-12 22:07N 31°22' E 032°17'0 0.0
2014-Jul-12 20:31N 31°22' E 032°17'0 0.0
2014-Jul-12 19:22N 31°22' E 032°17'0 0.0
2014-Jul-12 18:31N 31°22' E 032°17'0 0.0
2014-Jul-12 17:28N 31°22' E 032°17'0 0.0
2014-Jul-12 16:31N 31°22' E 032°17'0 0.0
2014-Jul-12 15:31N 31°22' E 032°17'0 0.0
2014-Jul-12 14:31N 31°22' E 032°17'0 0.0
2014-Jul-12 13:31N 31°22' E 032°17'0 0.0
2014-Jul-12 12:31N 31°22' E 032°17'1 0.8
2014-Jul-12 11:33N 31°23' E 032°17'6 6.4
2014-Jul-12 10:33N 31°29' E 032°16'8 7.6
2014-Jul-12 09:33N 31°35' E 032°10'1413.7
2014-Jul-12 08:33N 31°44' E 031°58'1413.6
2014-Jul-12 07:33N 31°51' E 031°44'1413.9
2014-Jul-12 06:33N 31°55' E 031°28'1414.2
2014-Jul-12 05:34N 31°59' E 031°13'1514.6
2014-Jul-12 04:33N 32°04' E 030°56'1614.7
2014-Jul-12 03:28N 32°09' E 030°38'1314.6
2014-Jul-12 02:34N 32°13' E 030°23'1514.7
2014-Jul-12 01:33N 32°18' E 030°07'3014.6
2014-Jul-11 23:28N 32°27' E 029°32'1314.3
2014-Jul-11 22:33N 32°31' E 029°18'2913.7
2014-Jul-11 20:28N 32°40' E 028°45'1613.7
2014-Jul-11 19:17N 32°45' E 028°27'1114.1
2014-Jul-11 18:31N 32°48' E 028°15'1414.1
2014-Jul-11 17:34N 32°52' E 027°60'1413.9
2014-Jul-11 16:33N 32°57' E 027°44'1413.7
2014-Jul-11 15:33N 33°01' E 027°28'1413.8
2014-Jul-11 14:33N 33°05' E 027°13'1413.7
2014-Jul-11 13:33N 33°09' E 026°57'1613.6
2014-Jul-11 12:24N 33°14' E 026°39'1213.9
2014-Jul-11 11:33N 33°18' E 026°26'1414.0
2014-Jul-11 10:33N 33°22' E 026°10'29714.0
2014-Jul-10 13:23N 34°54' E 020°29'23813.8
2014-Jul-09 20:12N 36°07' E 015°51'2913.8
2014-Jul-09 18:05N 36°16' E 015°17'913.9
2014-Jul-09 17:27N 36°19' E 015°06'1214.0
2014-Jul-09 16:33N 36°23' E 014°51'1414.0
2014-Jul-09 15:33N 36°28' E 014°35'1413.9
2014-Jul-09 14:33N 36°32' E 014°18'1413.8
2014-Jul-09 13:33N 36°36' E 014°02'1413.9
2014-Jul-09 12:33N 36°40' E 013°46'1413.9
2014-Jul-09 11:33N 36°45' E 013°29'1413.9
2014-Jul-09 10:33N 36°49' E 013°13'1413.7
2014-Jul-09 09:33N 36°53' E 012°56'1414.1
2014-Jul-09 08:33N 36°57' E 012°40'1413.8
2014-Jul-09 07:33N 37°01' E 012°23'15313.5
2014-Jul-08 20:15N 37°24' E 009°13'3914.0
2014-Jul-08 17:27N 37°18' E 008°24'1314.0
2014-Jul-08 16:31N 37°17' E 008°08'25214.0
2014-Jul-07 22:30N 37°02' E 002°52'  
2014-Jul-05 11:30N 35°57' W 005°26'7514.1
2014-Jul-05 06:11N 36°03' W 006°59'914.0
2014-Jul-05 05:33N 36°06' W 007°10'1413.9
2014-Jul-05 04:33N 36°09' W 007°26'1413.8
2014-Jul-05 03:33N 36°13' W 007°43'1413.9
2014-Jul-05 02:33N 36°16' W 007°59'1413.8
2014-Jul-05 01:33N 36°20' W 008°16'1413.7
2014-Jul-05 00:33N 36°23' W 008°33'1413.8
2014-Jul-04 23:34N 36°27' W 008°49'1413.6
2014-Jul-04 22:33N 36°30' W 009°05'1313.0
2014-Jul-04 21:33N 36°35' W 009°20'1413.8
2014-Jul-04 20:33N 36°45' W 009°32'1413.7
2014-Jul-04 19:33N 36°58' W 009°37'1414.3
2014-Jul-04 18:33N 37°12' W 009°41'1414.3
2014-Jul-04 17:33N 37°26' W 009°45'1414.3
2014-Jul-04 16:33N 37°40' W 009°49'1414.2
2014-Jul-04 15:32N 37°54' W 009°53'1414.5
2014-Jul-04 14:33N 38°08' W 009°57'1514.4
2014-Jul-04 13:33N 38°22' W 010°01'1414.2
2014-Jul-04 12:32N 38°36' W 010°05'1413.7
2014-Jul-04 11:33N 38°50' W 010°06'1414.3
2014-Jul-04 10:33N 39°04' W 010°06'  

Dump ship's entire track history